sensor_id;sensor_type;location;lat;lon;timestamp;temperature;humidity
33328;DHT22;19692;52.998;9.116;2022-07-18T00:00:25;14.70;99.90
33328;DHT22;19692;52.998;9.116;2022-07-18T00:02:51;14.60;99.90
33328;DHT22;19692;52.998;9.116;2022-07-18T00:05:16;14.40;99.90
33328;DHT22;19692;52.998;9.116;2022-07-18T00:07:42;14.30;99.90
33328;DHT22;19692;52.998;9.116;2022-07-18T00:10:08;14.20;99.90
33328;DHT22;19692;52.998;9.116;2022-07-18T00:12:34;14.20;99.90
33328;DHT22;19692;52.998;9.116;2022-07-18T00:14:59;14.20;99.90
33328;DHT22;19692;52.998;9.116;2022-07-18T00:17:25;14.10;99.90
33328;DHT22;19692;52.998;9.116;2022-07-18T00:19:51;14.10;99.90
33328;DHT22;19692;52.998;9.116;2022-07-18T00:22:17;14.10;99.90
33328;DHT22;19692;52.998;9.116;2022-07-18T00:24:43;14.20;99.90
33328;DHT22;19692;52.998;9.116;2022-07-18T00:27:09;14.20;99.90
33328;DHT22;19692;52.998;9.116;2022-07-18T00:29:35;14.20;99.90
33328;DHT22;19692;52.998;9.116;2022-07-18T00:32:05;14.20;99.90
33328;DHT22;19692;52.998;9.116;2022-07-18T00:34:32;14.20;99.90
33328;DHT22;19692;52.998;9.116;2022-07-18T00:36:58;14.10;99.90
33328;DHT22;19692;52.998;9.116;2022-07-18T00:39:25;14.10;99.90
33328;DHT22;19692;52.998;9.116;2022-07-18T00:41:51;14.00;99.90
33328;DHT22;19692;52.998;9.116;2022-07-18T00:44:23;13.80;99.90
33328;DHT22;19692;52.998;9.116;2022-07-18T00:46:51;13.70;99.90
33328;DHT22;19692;52.998;9.116;2022-07-18T00:49:18;13.60;99.90
33328;DHT22;19692;52.998;9.116;2022-07-18T00:51:45;13.60;99.90
33328;DHT22;19692;52.998;9.116;2022-07-18T00:54:11;13.60;99.90
33328;DHT22;19692;52.998;9.116;2022-07-18T00:56:37;13.60;99.90
33328;DHT22;19692;52.998;9.116;2022-07-18T00:59:03;13.60;99.90
33328;DHT22;19692;52.998;9.116;2022-07-18T01:01:29;13.60;99.90
33328;DHT22;19692;52.998;9.116;2022-07-18T01:04:17;13.60;99.90
33328;DHT22;19692;52.998;9.116;2022-07-18T01:06:48;13.50;99.90
33328;DHT22;19692;52.998;9.116;2022-07-18T01:09:16;13.50;99.90
33328;DHT22;19692;52.998;9.116;2022-07-18T01:11:47;13.60;99.90
33328;DHT22;19692;52.998;9.116;2022-07-18T01:14:13;13.70;99.90
33328;DHT22;19692;52.998;9.116;2022-07-18T01:16:40;13.80;99.90
33328;DHT22;19692;52.998;9.116;2022-07-18T01:19:06;14.00;99.90
33328;DHT22;19692;52.998;9.116;2022-07-18T01:21:32;14.00;99.90
33328;DHT22;19692;52.998;9.116;2022-07-18T01:23:58;14.10;99.90
33328;DHT22;19692;52.998;9.116;2022-07-18T01:26:24;14.10;99.90
33328;DHT22;19692;52.998;9.116;2022-07-18T01:28:50;14.00;99.90
33328;DHT22;19692;52.998;9.116;2022-07-18T01:31:16;13.80;99.90
33328;DHT22;19692;52.998;9.116;2022-07-18T01:33:42;13.60;99.90
33328;DHT22;19692;52.998;9.116;2022-07-18T01:36:08;13.60;99.90
33328;DHT22;19692;52.998;9.116;2022-07-18T01:38:34;13.50;99.90
33328;DHT22;19692;52.998;9.116;2022-07-18T01:41:00;13.50;99.90
33328;DHT22;19692;52.998;9.116;2022-07-18T01:43:27;13.40;99.90
33328;DHT22;19692;52.998;9.116;2022-07-18T01:45:53;13.30;99.90
33328;DHT22;19692;52.998;9.116;2022-07-18T01:48:20;13.30;99.90
33328;DHT22;19692;52.998;9.116;2022-07-18T01:50:48;13.40;99.90
33328;DHT22;19692;52.998;9.116;2022-07-18T01:53:13;13.50;99.90
33328;DHT22;19692;52.998;9.116;2022-07-18T01:55:39;13.60;99.90
33328;DHT22;19692;52.998;9.116;2022-07-18T01:58:05;13.70;99.90
33328;DHT22;19692;52.998;9.116;2022-07-18T02:00:31;13.70;99.90
33328;DHT22;19692;52.998;9.116;2022-07-18T02:02:57;13.70;99.90
33328;DHT22;19692;52.998;9.116;2022-07-18T02:05:23;13.70;99.90
33328;DHT22;19692;52.998;9.116;2022-07-18T02:07:49;13.70;99.90
33328;DHT22;19692;52.998;9.116;2022-07-18T02:10:17;13.60;99.90
33328;DHT22;19692;52.998;9.116;2022-07-18T02:12:45;13.50;99.90
33328;DHT22;19692;52.998;9.116;2022-07-18T02:15:12;13.40;99.90
33328;DHT22;19692;52.998;9.116;2022-07-18T02:17:39;13.30;99.90
33328;DHT22;19692;52.998;9.116;2022-07-18T02:20:07;13.30;99.90
33328;DHT22;19692;52.998;9.116;2022-07-18T02:22:35;13.30;99.90
33328;DHT22;19692;52.998;9.116;2022-07-18T02:25:01;13.30;99.90
33328;DHT22;19692;52.998;9.116;2022-07-18T02:27:26;13.20;99.90
33328;DHT22;19692;52.998;9.116;2022-07-18T02:29:52;13.10;99.90
33328;DHT22;19692;52.998;9.116;2022-07-18T02:32:18;13.10;99.90
33328;DHT22;19692;52.998;9.116;2022-07-18T02:34:44;13.10;99.90
33328;DHT22;19692;52.998;9.116;2022-07-18T02:37:10;13.10;99.90
33328;DHT22;19692;52.998;9.116;2022-07-18T02:39:36;13.10;99.90
33328;DHT22;19692;52.998;9.116;2022-07-18T02:42:04;13.10;99.90
33328;DHT22;19692;52.998;9.116;2022-07-18T02:44:30;13.10;99.90
33328;DHT22;19692;52.998;9.116;2022-07-18T02:46:56;13.00;99.90
33328;DHT22;19692;52.998;9.116;2022-07-18T02:49:21;13.10;99.90
33328;DHT22;19692;52.998;9.116;2022-07-18T02:51:58;13.10;99.90
33328;DHT22;19692;52.998;9.116;2022-07-18T02:54:30;13.10;99.90
33328;DHT22;19692;52.998;9.116;2022-07-18T02:56:57;13.00;99.90
33328;DHT22;19692;52.998;9.116;2022-07-18T02:59:25;13.00;99.90
33328;DHT22;19692;52.998;9.116;2022-07-18T03:01:51;13.00;99.90
33328;DHT22;19692;52.998;9.116;2022-07-18T03:04:18;13.00;99.90
33328;DHT22;19692;52.998;9.116;2022-07-18T03:06:45;13.00;99.90
33328;DHT22;19692;52.998;9.116;2022-07-18T03:09:12;13.00;99.90
33328;DHT22;19692;52.998;9.116;2022-07-18T03:11:38;13.10;99.90
33328;DHT22;19692;52.998;9.116;2022-07-18T03:14:04;13.20;99.90
33328;DHT22;19692;52.998;9.116;2022-07-18T03:16:30;13.30;99.90
33328;DHT22;19692;52.998;9.116;2022-07-18T03:18:56;13.40;99.90
33328;DHT22;19692;52.998;9.116;2022-07-18T03:21:21;13.60;99.90
33328;DHT22;19692;52.998;9.116;2022-07-18T03:23:47;13.70;99.90
33328;DHT22;19692;52.998;9.116;2022-07-18T03:26:13;13.80;99.90
33328;DHT22;19692;52.998;9.116;2022-07-18T03:28:39;13.80;99.90
33328;DHT22;19692;52.998;9.116;2022-07-18T03:31:05;13.90;99.90
33328;DHT22;19692;52.998;9.116;2022-07-18T03:33:30;14.00;99.90
33328;DHT22;19692;52.998;9.116;2022-07-18T03:35:56;14.00;99.90
33328;DHT22;19692;52.998;9.116;2022-07-18T03:38:22;14.00;99.90
33328;DHT22;19692;52.998;9.116;2022-07-18T03:40:48;14.00;99.90
33328;DHT22;19692;52.998;9.116;2022-07-18T03:43:14;13.90;99.90
33328;DHT22;19692;52.998;9.116;2022-07-18T03:45:39;13.90;99.90
33328;DHT22;19692;52.998;9.116;2022-07-18T03:48:05;13.90;99.90
33328;DHT22;19692;52.998;9.116;2022-07-18T03:50:31;14.00;99.90
33328;DHT22;19692;52.998;9.116;2022-07-18T03:52:57;14.00;99.90
33328;DHT22;19692;52.998;9.116;2022-07-18T03:55:23;14.00;99.90
33328;DHT22;19692;52.998;9.116;2022-07-18T03:57:49;14.10;99.90
33328;DHT22;19692;52.998;9.116;2022-07-18T04:00:15;14.20;99.90
33328;DHT22;19692;52.998;9.116;2022-07-18T04:02:45;14.20;99.90
33328;DHT22;19692;52.998;9.116;2022-07-18T04:05:13;14.30;99.90
33328;DHT22;19692;52.998;9.116;2022-07-18T04:07:39;14.20;99.90
33328;DHT22;19692;52.998;9.116;2022-07-18T04:10:07;14.20;99.90
33328;DHT22;19692;52.998;9.116;2022-07-18T04:12:33;14.20;99.90
33328;DHT22;19692;52.998;9.116;2022-07-18T04:14:59;14.30;99.90
33328;DHT22;19692;52.998;9.116;2022-07-18T04:17:26;14.30;99.90
33328;DHT22;19692;52.998;9.116;2022-07-18T04:19:51;14.30;99.90
33328;DHT22;19692;52.998;9.116;2022-07-18T04:22:17;14.30;99.90
33328;DHT22;19692;52.998;9.116;2022-07-18T04:24:43;14.30;99.90
33328;DHT22;19692;52.998;9.116;2022-07-18T04:27:09;14.40;99.90
33328;DHT22;19692;52.998;9.116;2022-07-18T04:29:34;14.50;99.90
33328;DHT22;19692;52.998;9.116;2022-07-18T04:32:02;14.40;99.90
33328;DHT22;19692;52.998;9.116;2022-07-18T04:34:28;14.40;99.90
33328;DHT22;19692;52.998;9.116;2022-07-18T04:36:53;14.50;99.90
33328;DHT22;19692;52.998;9.116;2022-07-18T04:39:19;14.60;99.90
33328;DHT22;19692;52.998;9.116;2022-07-18T04:41:45;14.60;99.90
33328;DHT22;19692;52.998;9.116;2022-07-18T04:44:12;14.80;99.90
33328;DHT22;19692;52.998;9.116;2022-07-18T04:46:38;15.00;99.90
33328;DHT22;19692;52.998;9.116;2022-07-18T04:49:04;15.10;99.90
33328;DHT22;19692;52.998;9.116;2022-07-18T04:51:30;15.10;99.90
33328;DHT22;19692;52.998;9.116;2022-07-18T04:53:55;15.10;99.90
33328;DHT22;19692;52.998;9.116;2022-07-18T04:56:22;15.20;99.90
33328;DHT22;19692;52.998;9.116;2022-07-18T04:58:48;15.30;99.90
33328;DHT22;19692;52.998;9.116;2022-07-18T05:01:14;15.30;99.90
33328;DHT22;19692;52.998;9.116;2022-07-18T05:03:40;15.40;99.90
33328;DHT22;19692;52.998;9.116;2022-07-18T05:06:06;15.40;99.90
33328;DHT22;19692;52.998;9.116;2022-07-18T05:08:31;15.30;99.90
33328;DHT22;19692;52.998;9.116;2022-07-18T05:10:57;15.40;99.90
33328;DHT22;19692;52.998;9.116;2022-07-18T05:13:23;15.40;99.90
33328;DHT22;19692;52.998;9.116;2022-07-18T05:15:49;15.40;99.90
33328;DHT22;19692;52.998;9.116;2022-07-18T05:18:14;15.50;99.90
33328;DHT22;19692;52.998;9.116;2022-07-18T05:20:40;15.70;99.90
33328;DHT22;19692;52.998;9.116;2022-07-18T05:23:06;15.80;99.90
33328;DHT22;19692;52.998;9.116;2022-07-18T05:25:32;16.00;99.90
33328;DHT22;19692;52.998;9.116;2022-07-18T05:27:58;16.10;99.90
33328;DHT22;19692;52.998;9.116;2022-07-18T05:30:24;16.30;99.90
33328;DHT22;19692;52.998;9.116;2022-07-18T05:32:50;16.40;99.90
33328;DHT22;19692;52.998;9.116;2022-07-18T05:35:18;16.50;99.90
33328;DHT22;19692;52.998;9.116;2022-07-18T05:37:44;16.60;99.90
33328;DHT22;19692;52.998;9.116;2022-07-18T05:40:12;16.60;99.90
33328;DHT22;19692;52.998;9.116;2022-07-18T05:42:39;16.70;99.90
33328;DHT22;19692;52.998;9.116;2022-07-18T05:45:05;16.70;99.90
33328;DHT22;19692;52.998;9.116;2022-07-18T05:47:32;16.90;99.90
33328;DHT22;19692;52.998;9.116;2022-07-18T05:49:57;16.90;99.90
33328;DHT22;19692;52.998;9.116;2022-07-18T05:52:23;17.10;99.90
33328;DHT22;19692;52.998;9.116;2022-07-18T05:54:49;17.20;99.90
33328;DHT22;19692;52.998;9.116;2022-07-18T05:57:15;17.20;99.90
33328;DHT22;19692;52.998;9.116;2022-07-18T05:59:40;17.30;99.90
33328;DHT22;19692;52.998;9.116;2022-07-18T06:02:06;17.30;99.90
33328;DHT22;19692;52.998;9.116;2022-07-18T06:04:32;17.50;99.90
33328;DHT22;19692;52.998;9.116;2022-07-18T06:06:58;17.60;99.90
33328;DHT22;19692;52.998;9.116;2022-07-18T06:09:23;17.70;99.90
33328;DHT22;19692;52.998;9.116;2022-07-18T06:11:50;17.70;99.90
33328;DHT22;19692;52.998;9.116;2022-07-18T06:14:15;17.80;99.90
33328;DHT22;19692;52.998;9.116;2022-07-18T06:16:41;17.70;99.90
33328;DHT22;19692;52.998;9.116;2022-07-18T06:19:07;17.80;99.90
33328;DHT22;19692;52.998;9.116;2022-07-18T06:21:33;18.00;99.90
33328;DHT22;19692;52.998;9.116;2022-07-18T06:23:59;18.20;99.90
33328;DHT22;19692;52.998;9.116;2022-07-18T06:26:24;18.30;99.90
33328;DHT22;19692;52.998;9.116;2022-07-18T06:28:50;18.40;99.90
33328;DHT22;19692;52.998;9.116;2022-07-18T06:31:16;18.50;99.90
33328;DHT22;19692;52.998;9.116;2022-07-18T06:33:42;18.60;99.90
33328;DHT22;19692;52.998;9.116;2022-07-18T06:36:08;18.80;99.90
33328;DHT22;19692;52.998;9.116;2022-07-18T06:38:37;19.00;99.90
33328;DHT22;19692;52.998;9.116;2022-07-18T06:41:04;19.20;99.90
33328;DHT22;19692;52.998;9.116;2022-07-18T06:43:30;19.30;99.90
33328;DHT22;19692;52.998;9.116;2022-07-18T06:45:56;19.40;99.90
33328;DHT22;19692;52.998;9.116;2022-07-18T06:48:23;19.30;99.90
33328;DHT22;19692;52.998;9.116;2022-07-18T06:50:49;19.40;99.90
33328;DHT22;19692;52.998;9.116;2022-07-18T06:53:15;19.40;99.90
33328;DHT22;19692;52.998;9.116;2022-07-18T06:55:40;19.50;99.90
33328;DHT22;19692;52.998;9.116;2022-07-18T06:58:06;19.50;99.90
33328;DHT22;19692;52.998;9.116;2022-07-18T07:00:32;19.70;99.90
33328;DHT22;19692;52.998;9.116;2022-07-18T07:02:58;20.00;99.90
33328;DHT22;19692;52.998;9.116;2022-07-18T07:05:24;20.30;99.90
33328;DHT22;19692;52.998;9.116;2022-07-18T07:07:50;20.30;99.90
33328;DHT22;19692;52.998;9.116;2022-07-18T07:10:17;20.40;99.90
33328;DHT22;19692;52.998;9.116;2022-07-18T07:12:46;20.80;99.90
33328;DHT22;19692;52.998;9.116;2022-07-18T07:15:18;20.90;99.90
33328;DHT22;19692;52.998;9.116;2022-07-18T07:17:45;21.00;99.90
33328;DHT22;19692;52.998;9.116;2022-07-18T07:20:12;21.10;99.90
33328;DHT22;19692;52.998;9.116;2022-07-18T07:22:49;21.20;99.90
33328;DHT22;19692;52.998;9.116;2022-07-18T07:25:21;21.40;99.90
33328;DHT22;19692;52.998;9.116;2022-07-18T07:27:48;21.50;99.90
33328;DHT22;19692;52.998;9.116;2022-07-18T07:30:14;21.70;99.90
33328;DHT22;19692;52.998;9.116;2022-07-18T07:32:42;21.90;99.90
33328;DHT22;19692;52.998;9.116;2022-07-18T07:35:10;22.20;99.90
33328;DHT22;19692;52.998;9.116;2022-07-18T07:37:39;22.10;99.90
33328;DHT22;19692;52.998;9.116;2022-07-18T07:40:07;22.20;99.90
33328;DHT22;19692;52.998;9.116;2022-07-18T07:42:34;22.20;99.90
33328;DHT22;19692;52.998;9.116;2022-07-18T07:45:00;22.00;99.90
33328;DHT22;19692;52.998;9.116;2022-07-18T07:47:26;22.00;99.90
33328;DHT22;19692;52.998;9.116;2022-07-18T07:49:54;22.20;99.90
33328;DHT22;19692;52.998;9.116;2022-07-18T07:52:20;22.30;99.90
33328;DHT22;19692;52.998;9.116;2022-07-18T07:54:46;22.50;99.90
33328;DHT22;19692;52.998;9.116;2022-07-18T07:57:12;22.70;99.90
33328;DHT22;19692;52.998;9.116;2022-07-18T07:59:38;23.00;99.90
33328;DHT22;19692;52.998;9.116;2022-07-18T08:02:04;23.30;99.90
33328;DHT22;19692;52.998;9.116;2022-07-18T08:04:30;23.40;99.90
33328;DHT22;19692;52.998;9.116;2022-07-18T08:06:56;23.90;99.90
33328;DHT22;19692;52.998;9.116;2022-07-18T08:09:22;24.00;99.90
33328;DHT22;19692;52.998;9.116;2022-07-18T08:11:48;24.00;99.90
33328;DHT22;19692;52.998;9.116;2022-07-18T08:14:13;24.40;99.90
33328;DHT22;19692;52.998;9.116;2022-07-18T08:16:39;24.50;99.90
33328;DHT22;19692;52.998;9.116;2022-07-18T08:19:05;24.60;99.90
33328;DHT22;19692;52.998;9.116;2022-07-18T08:21:31;24.60;99.90
33328;DHT22;19692;52.998;9.116;2022-07-18T08:23:57;24.70;99.90
33328;DHT22;19692;52.998;9.116;2022-07-18T08:26:23;24.70;99.90
33328;DHT22;19692;52.998;9.116;2022-07-18T08:28:48;25.00;99.60
33328;DHT22;19692;52.998;9.116;2022-07-18T08:31:14;25.20;99.80
33328;DHT22;19692;52.998;9.116;2022-07-18T08:33:40;25.20;99.20
33328;DHT22;19692;52.998;9.116;2022-07-18T08:36:06;25.30;98.90
33328;DHT22;19692;52.998;9.116;2022-07-18T08:38:33;25.30;98.20
33328;DHT22;19692;52.998;9.116;2022-07-18T08:41:01;25.60;97.10
33328;DHT22;19692;52.998;9.116;2022-07-18T08:43:27;25.70;95.90
33328;DHT22;19692;52.998;9.116;2022-07-18T08:46:03;25.70;95.50
33328;DHT22;19692;52.998;9.116;2022-07-18T08:48:31;25.90;96.20
33328;DHT22;19692;52.998;9.116;2022-07-18T08:50:59;25.90;95.60
33328;DHT22;19692;52.998;9.116;2022-07-18T08:53:26;25.90;95.80
33328;DHT22;19692;52.998;9.116;2022-07-18T08:55:53;25.90;94.30
33328;DHT22;19692;52.998;9.116;2022-07-18T08:58:19;25.80;94.00
33328;DHT22;19692;52.998;9.116;2022-07-18T09:00:45;26.00;94.40
33328;DHT22;19692;52.998;9.116;2022-07-18T09:03:11;25.90;94.40
33328;DHT22;19692;52.998;9.116;2022-07-18T09:05:37;25.90;93.70
33328;DHT22;19692;52.998;9.116;2022-07-18T09:08:19;25.90;93.40
33328;DHT22;19692;52.998;9.116;2022-07-18T09:10:52;26.10;93.60
33328;DHT22;19692;52.998;9.116;2022-07-18T09:13:23;26.30;92.70
33328;DHT22;19692;52.998;9.116;2022-07-18T09:16:07;26.50;90.90
33328;DHT22;19692;52.998;9.116;2022-07-18T09:18:39;27.10;91.10
33328;DHT22;19692;52.998;9.116;2022-07-18T09:23:40;27.10;90.70
33328;DHT22;19692;52.998;9.116;2022-07-18T09:26:09;27.30;90.80
33328;DHT22;19692;52.998;9.116;2022-07-18T09:28:52;27.10;90.20
33328;DHT22;19692;52.998;9.116;2022-07-18T09:31:23;27.10;90.40
33328;DHT22;19692;52.998;9.116;2022-07-18T09:33:58;27.10;89.60
33328;DHT22;19692;52.998;9.116;2022-07-18T09:36:25;27.30;89.10
33328;DHT22;19692;52.998;9.116;2022-07-18T09:38:52;27.20;89.20
33328;DHT22;19692;52.998;9.116;2022-07-18T09:41:29;27.40;90.10
33328;DHT22;19692;52.998;9.116;2022-07-18T09:43:58;27.80;89.00
33328;DHT22;19692;52.998;9.116;2022-07-18T09:46:24;27.70;87.60
33328;DHT22;19692;52.998;9.116;2022-07-18T09:49:10;27.60;87.90
33328;DHT22;19692;52.998;9.116;2022-07-18T09:51:36;27.60;88.00
33328;DHT22;19692;52.998;9.116;2022-07-18T09:54:02;27.60;87.00
33328;DHT22;19692;52.998;9.116;2022-07-18T09:56:30;27.50;87.90
33328;DHT22;19692;52.998;9.116;2022-07-18T09:58:58;27.50;87.80
33328;DHT22;19692;52.998;9.116;2022-07-18T10:01:24;27.70;87.10
33328;DHT22;19692;52.998;9.116;2022-07-18T10:03:51;27.60;90.00
33328;DHT22;19692;52.998;9.116;2022-07-18T10:06:17;27.70;83.90
33328;DHT22;19692;52.998;9.116;2022-07-18T10:08:43;27.40;85.60
33328;DHT22;19692;52.998;9.116;2022-07-18T10:11:10;27.40;83.30
33328;DHT22;19692;52.998;9.116;2022-07-18T10:13:37;27.60;82.80
33328;DHT22;19692;52.998;9.116;2022-07-18T10:16:04;27.80;84.20
33328;DHT22;19692;52.998;9.116;2022-07-18T10:18:32;27.90;82.00
33328;DHT22;19692;52.998;9.116;2022-07-18T10:23:38;28.00;84.20
33328;DHT22;19692;52.998;9.116;2022-07-18T10:36:35;29.70;78.30
33328;DHT22;19692;52.998;9.116;2022-07-18T10:39:10;29.80;75.70
33328;DHT22;19692;52.998;9.116;2022-07-18T10:57:35;30.00;68.20
33328;DHT22;19692;52.998;9.116;2022-07-18T11:00:10;29.70;68.90
33328;DHT22;19692;52.998;9.116;2022-07-18T11:02:47;29.70;68.30
33328;DHT22;19692;52.998;9.116;2022-07-18T11:13:41;30.70;73.10
33328;DHT22;19692;52.998;9.116;2022-07-18T11:16:19;30.90;65.40
33328;DHT22;19692;52.998;9.116;2022-07-18T11:21:27;30.70;61.60
33328;DHT22;19692;52.998;9.116;2022-07-18T11:26:26;30.40;63.20
33328;DHT22;19692;52.998;9.116;2022-07-18T11:29:01;30.00;63.60
33328;DHT22;19692;52.998;9.116;2022-07-18T11:31:54;30.10;63.90
33328;DHT22;19692;52.998;9.116;2022-07-18T11:34:22;30.10;64.00
33328;DHT22;19692;52.998;9.116;2022-07-18T11:36:49;30.30;62.90
33328;DHT22;19692;52.998;9.116;2022-07-18T11:39:27;30.60;61.90
33328;DHT22;19692;52.998;9.116;2022-07-18T11:41:54;30.60;61.00
33328;DHT22;19692;52.998;9.116;2022-07-18T11:44:20;30.60;61.40
33328;DHT22;19692;52.998;9.116;2022-07-18T11:47:07;30.60;60.50
33328;DHT22;19692;52.998;9.116;2022-07-18T11:49:35;31.10;61.70
33328;DHT22;19692;52.998;9.116;2022-07-18T11:52:01;31.00;59.80
33328;DHT22;19692;52.998;9.116;2022-07-18T11:54:27;31.20;60.00
33328;DHT22;19692;52.998;9.116;2022-07-18T11:56:55;31.10;59.80
33328;DHT22;19692;52.998;9.116;2022-07-18T11:59:22;31.40;59.60
33328;DHT22;19692;52.998;9.116;2022-07-18T12:01:48;31.40;59.10
33328;DHT22;19692;52.998;9.116;2022-07-18T12:04:22;31.40;59.00
33328;DHT22;19692;52.998;9.116;2022-07-18T12:07:14;31.70;59.80
33328;DHT22;19692;52.998;9.116;2022-07-18T12:09:42;31.50;58.50
33328;DHT22;19692;52.998;9.116;2022-07-18T12:12:12;31.70;58.90
33328;DHT22;19692;52.998;9.116;2022-07-18T12:14:39;31.60;57.80
33328;DHT22;19692;52.998;9.116;2022-07-18T12:17:06;31.50;58.60
33328;DHT22;19692;52.998;9.116;2022-07-18T12:19:39;31.50;57.90
33328;DHT22;19692;52.998;9.116;2022-07-18T12:22:12;31.70;57.20
33328;DHT22;19692;52.998;9.116;2022-07-18T12:24:52;32.20;56.90
33328;DHT22;19692;52.998;9.116;2022-07-18T12:30:04;31.60;56.50
33328;DHT22;19692;52.998;9.116;2022-07-18T12:32:51;31.50;58.00
33328;DHT22;19692;52.998;9.116;2022-07-18T12:43:37;31.40;57.60
33328;DHT22;19692;52.998;9.116;2022-07-18T12:46:07;31.60;57.60
33328;DHT22;19692;52.998;9.116;2022-07-18T12:48:34;32.00;57.30
33328;DHT22;19692;52.998;9.116;2022-07-18T12:51:08;31.90;58.00
33328;DHT22;19692;52.998;9.116;2022-07-18T12:53:38;32.10;57.20
33328;DHT22;19692;52.998;9.116;2022-07-18T12:56:05;32.30;56.70
33328;DHT22;19692;52.998;9.116;2022-07-18T12:58:31;32.30;56.40
33328;DHT22;19692;52.998;9.116;2022-07-18T13:00:57;32.50;57.30
33328;DHT22;19692;52.998;9.116;2022-07-18T13:03:23;32.80;57.10
33328;DHT22;19692;52.998;9.116;2022-07-18T13:05:49;33.10;56.60
33328;DHT22;19692;52.998;9.116;2022-07-18T13:08:15;32.90;55.00
33328;DHT22;19692;52.998;9.116;2022-07-18T13:10:41;32.80;55.70
33328;DHT22;19692;52.998;9.116;2022-07-18T13:13:08;32.80;55.90
33328;DHT22;19692;52.998;9.116;2022-07-18T13:15:35;32.60;55.90
33328;DHT22;19692;52.998;9.116;2022-07-18T13:18:01;32.60;56.40
33328;DHT22;19692;52.998;9.116;2022-07-18T13:20:28;32.40;56.90
33328;DHT22;19692;52.998;9.116;2022-07-18T13:22:55;32.80;55.90
33328;DHT22;19692;52.998;9.116;2022-07-18T13:25:21;33.20;55.30
33328;DHT22;19692;52.998;9.116;2022-07-18T13:27:48;33.50;54.60
33328;DHT22;19692;52.998;9.116;2022-07-18T13:30:14;33.30;53.80
33328;DHT22;19692;52.998;9.116;2022-07-18T13:32:40;33.40;54.80
33328;DHT22;19692;52.998;9.116;2022-07-18T13:35:09;33.60;54.60
33328;DHT22;19692;52.998;9.116;2022-07-18T13:37:35;33.80;53.50
33328;DHT22;19692;52.998;9.116;2022-07-18T13:40:01;33.90;53.80
33328;DHT22;19692;52.998;9.116;2022-07-18T13:42:27;33.50;53.40
33328;DHT22;19692;52.998;9.116;2022-07-18T13:44:52;33.60;54.40
33328;DHT22;19692;52.998;9.116;2022-07-18T13:47:18;33.30;52.70
33328;DHT22;19692;52.998;9.116;2022-07-18T13:49:44;33.30;53.00
33328;DHT22;19692;52.998;9.116;2022-07-18T13:52:10;33.20;53.50
33328;DHT22;19692;52.998;9.116;2022-07-18T13:54:35;33.00;54.60
33328;DHT22;19692;52.998;9.116;2022-07-18T13:57:01;33.10;53.60
33328;DHT22;19692;52.998;9.116;2022-07-18T13:59:27;33.30;53.70
33328;DHT22;19692;52.998;9.116;2022-07-18T14:01:52;33.10;54.10
33328;DHT22;19692;52.998;9.116;2022-07-18T14:04:19;33.10;54.60
33328;DHT22;19692;52.998;9.116;2022-07-18T14:06:47;32.80;55.00
33328;DHT22;19692;52.998;9.116;2022-07-18T14:09:13;32.60;54.30
33328;DHT22;19692;52.998;9.116;2022-07-18T14:11:39;32.70;54.10
33328;DHT22;19692;52.998;9.116;2022-07-18T14:14:05;32.80;53.40
33328;DHT22;19692;52.998;9.116;2022-07-18T14:16:31;32.50;53.40
33328;DHT22;19692;52.998;9.116;2022-07-18T14:18:58;32.80;53.60
33328;DHT22;19692;52.998;9.116;2022-07-18T14:21:24;33.10;53.70
33328;DHT22;19692;52.998;9.116;2022-07-18T14:23:50;33.00;54.10
33328;DHT22;19692;52.998;9.116;2022-07-18T14:26:16;32.90;53.80
33328;DHT22;19692;52.998;9.116;2022-07-18T14:28:42;32.60;53.70
33328;DHT22;19692;52.998;9.116;2022-07-18T14:31:08;32.50;54.70
33328;DHT22;19692;52.998;9.116;2022-07-18T14:33:34;32.70;54.40
33328;DHT22;19692;52.998;9.116;2022-07-18T14:36:00;32.70;54.60
33328;DHT22;19692;52.998;9.116;2022-07-18T14:38:25;32.40;54.70
33328;DHT22;19692;52.998;9.116;2022-07-18T14:40:51;32.20;54.60
33328;DHT22;19692;52.998;9.116;2022-07-18T14:43:17;31.90;55.40
33328;DHT22;19692;52.998;9.116;2022-07-18T14:45:43;31.90;55.00
33328;DHT22;19692;52.998;9.116;2022-07-18T14:48:08;31.90;54.80
33328;DHT22;19692;52.998;9.116;2022-07-18T14:50:34;32.20;55.60
33328;DHT22;19692;52.998;9.116;2022-07-18T14:53:00;32.60;55.40
33328;DHT22;19692;52.998;9.116;2022-07-18T14:55:26;32.90;54.50
33328;DHT22;19692;52.998;9.116;2022-07-18T14:57:51;32.60;54.00
33328;DHT22;19692;52.998;9.116;2022-07-18T15:00:18;32.40;55.20
33328;DHT22;19692;52.998;9.116;2022-07-18T15:02:44;32.20;55.30
33328;DHT22;19692;52.998;9.116;2022-07-18T15:05:10;32.30;55.60
33328;DHT22;19692;52.998;9.116;2022-07-18T15:07:36;32.10;55.80
33328;DHT22;19692;52.998;9.116;2022-07-18T15:10:03;32.00;55.50
33328;DHT22;19692;52.998;9.116;2022-07-18T15:12:29;32.00;56.80
33328;DHT22;19692;52.998;9.116;2022-07-18T15:14:57;32.00;56.30
33328;DHT22;19692;52.998;9.116;2022-07-18T15:17:24;31.70;57.30
33328;DHT22;19692;52.998;9.116;2022-07-18T15:19:53;31.60;56.70
33328;DHT22;19692;52.998;9.116;2022-07-18T15:22:18;31.50;57.40
33328;DHT22;19692;52.998;9.116;2022-07-18T15:24:44;31.20;57.30
33328;DHT22;19692;52.998;9.116;2022-07-18T15:27:12;31.30;58.50
33328;DHT22;19692;52.998;9.116;2022-07-18T15:29:38;31.40;58.00
33328;DHT22;19692;52.998;9.116;2022-07-18T15:32:05;31.50;59.00
33328;DHT22;19692;52.998;9.116;2022-07-18T15:34:35;31.60;58.60
33328;DHT22;19692;52.998;9.116;2022-07-18T15:37:01;31.60;58.30
33328;DHT22;19692;52.998;9.116;2022-07-18T15:39:27;31.80;58.10
33328;DHT22;19692;52.998;9.116;2022-07-18T15:41:53;32.00;57.20
33328;DHT22;19692;52.998;9.116;2022-07-18T15:44:19;32.20;57.20
33328;DHT22;19692;52.998;9.116;2022-07-18T15:46:45;32.20;57.10
33328;DHT22;19692;52.998;9.116;2022-07-18T15:49:10;32.50;56.80
33328;DHT22;19692;52.998;9.116;2022-07-18T15:51:36;32.60;55.90
33328;DHT22;19692;52.998;9.116;2022-07-18T15:54:05;32.70;56.00
33328;DHT22;19692;52.998;9.116;2022-07-18T15:56:31;32.80;56.20
33328;DHT22;19692;52.998;9.116;2022-07-18T15:58:56;32.60;55.80
33328;DHT22;19692;52.998;9.116;2022-07-18T16:01:22;32.60;57.00
33328;DHT22;19692;52.998;9.116;2022-07-18T16:03:48;32.60;55.70
33328;DHT22;19692;52.998;9.116;2022-07-18T16:06:14;32.40;56.10
33328;DHT22;19692;52.998;9.116;2022-07-18T16:08:39;32.40;57.10
33328;DHT22;19692;52.998;9.116;2022-07-18T16:11:05;32.40;55.60
33328;DHT22;19692;52.998;9.116;2022-07-18T16:13:31;32.40;55.70
33328;DHT22;19692;52.998;9.116;2022-07-18T16:15:57;32.60;55.60
33328;DHT22;19692;52.998;9.116;2022-07-18T16:18:22;32.90;56.00
33328;DHT22;19692;52.998;9.116;2022-07-18T16:20:48;33.10;55.50
33328;DHT22;19692;52.998;9.116;2022-07-18T16:23:14;33.30;54.60
33328;DHT22;19692;52.998;9.116;2022-07-18T16:25:40;33.40;55.00